createdAt,value
2019-05-05T00:00:08.383Z,11360.00
2019-05-05T00:01:08.354Z,11244.00
2019-05-05T00:02:08.354Z,11128.00
2019-05-05T00:03:08.346Z,11096.00
2019-05-05T00:04:08.339Z,11088.00
2019-05-05T00:05:08.765Z,11012.00
2019-05-05T00:06:08.320Z,10848.00
2019-05-05T00:07:08.320Z,10608.00
2019-05-05T00:08:08.322Z,10372.00
2019-05-05T00:09:08.294Z,10280.00
2019-05-05T00:10:08.295Z,10280.00
2019-05-05T00:11:08.279Z,10308.00
2019-05-05T00:12:08.289Z,10264.00
2019-05-05T00:13:08.280Z,10184.00
2019-05-05T00:14:08.276Z,10012.00
2019-05-05T00:15:08.274Z,9800.00
2019-05-05T00:16:08.237Z,9772.00
2019-05-05T00:17:08.245Z,9780.00
2019-05-05T00:18:08.245Z,9628.00
2019-05-05T00:19:08.236Z,9500.00
2019-05-05T00:20:08.224Z,9392.00
2019-05-05T00:21:08.221Z,9296.00
2019-05-05T00:22:08.192Z,9140.00
2019-05-05T00:23:08.193Z,8896.00
2019-05-05T00:24:08.183Z,8620.00
2019-05-05T00:25:08.182Z,8448.00
2019-05-05T00:26:08.176Z,8240.00
2019-05-05T00:27:08.168Z,7964.00
2019-05-05T00:28:08.170Z,7764.00
2019-05-05T00:29:08.161Z,7508.00
2019-05-05T00:30:08.138Z,7068.00
2019-05-05T00:31:08.135Z,6540.00
2019-05-05T00:32:08.134Z,6056.00
2019-05-05T00:33:08.122Z,5868.00
2019-05-05T00:34:08.121Z,5948.00
2019-05-05T00:35:08.104Z,6100.00
2019-05-05T00:36:08.109Z,6240.00
2019-05-05T00:37:08.094Z,6304.00
2019-05-05T00:38:08.070Z,6332.00
2019-05-05T00:39:08.076Z,6368.00
2019-05-05T00:40:08.069Z,6396.00
2019-05-05T00:41:08.061Z,6360.00
2019-05-05T00:42:08.037Z,6444.00
2019-05-05T00:43:08.052Z,6528.00
2019-05-05T00:44:08.044Z,6576.00
2019-05-05T00:45:08.039Z,6672.00
2019-05-05T00:46:08.019Z,6892.00
2019-05-05T00:47:08.008Z,7148.00
2019-05-05T00:48:08.002Z,7364.00
2019-05-05T00:49:07.988Z,7468.00
2019-05-05T00:50:07.982Z,7488.00
2019-05-05T00:51:07.976Z,7532.00
2019-05-05T00:52:07.971Z,7608.00
2019-05-05T00:53:07.971Z,7660.00
2019-05-05T00:54:07.953Z,7640.00
2019-05-05T00:55:07.941Z,7564.00
2019-05-05T00:56:07.936Z,7488.00
2019-05-05T00:57:07.930Z,7404.00
2019-05-05T00:58:07.926Z,7292.00
2019-05-05T00:59:07.902Z,7144.00
2019-05-05T01:00:07.903Z,7052.00
2019-05-05T01:01:07.898Z,6988.00
2019-05-05T01:02:07.898Z,6888.00
2019-05-05T01:03:07.871Z,6840.00
2019-05-05T01:04:07.876Z,6836.00
2019-05-05T01:05:07.864Z,6848.00
2019-05-05T01:06:07.843Z,6864.00
2019-05-05T01:07:07.852Z,6952.00
2019-05-05T01:08:07.843Z,7100.00
2019-05-05T01:09:07.838Z,7160.00
2019-05-05T01:10:07.809Z,7204.00
2019-05-05T01:11:07.827Z,7264.00
2019-05-05T01:12:07.805Z,7316.00
2019-05-05T01:13:07.796Z,7352.00
2019-05-05T01:14:07.792Z,7368.00
2019-05-05T01:15:07.781Z,7316.00
2019-05-05T01:16:07.771Z,7244.00
2019-05-05T01:17:07.771Z,7144.00
2019-05-05T01:18:07.756Z,7076.00
2019-05-05T01:19:07.745Z,7008.00
2019-05-05T01:20:07.733Z,6984.00
2019-05-05T01:21:07.732Z,6992.00
2019-05-05T01:22:07.724Z,7000.00
2019-05-05T01:23:07.704Z,7000.00
2019-05-05T01:24:07.694Z,6992.00
2019-05-05T01:25:07.694Z,6920.00
2019-05-05T01:26:07.707Z,6884.00
2019-05-05T01:27:07.676Z,6840.00
2019-05-05T01:28:07.685Z,6792.00
2019-05-05T01:29:07.654Z,6768.00
2019-05-05T01:30:07.668Z,6708.00
2019-05-05T01:31:07.647Z,6644.00
2019-05-05T01:32:07.634Z,6592.00
2019-05-05T01:33:07.633Z,6592.00
2019-05-05T01:34:07.612Z,6588.00
2019-05-05T01:35:07.615Z,6560.00
2019-05-05T01:36:07.601Z,6516.00
2019-05-05T01:37:07.599Z,6508.00
2019-05-05T01:38:07.595Z,6460.00
2019-05-05T01:39:07.582Z,6488.00
2019-05-05T01:40:07.573Z,6424.00
2019-05-05T01:41:07.556Z,6428.00
2019-05-05T01:42:07.559Z,6388.00
2019-05-05T01:43:07.552Z,6368.00
2019-05-05T01:44:07.530Z,6368.00
2019-05-05T01:45:07.542Z,6316.00
2019-05-05T01:46:07.524Z,6348.00
2019-05-05T01:47:07.520Z,6296.00
2019-05-05T01:48:07.510Z,6268.00
2019-05-05T01:49:07.511Z,6228.00
2019-05-05T01:50:17.243Z,6196.00
2019-05-05T01:51:07.491Z,6260.00
2019-05-05T01:52:07.477Z,6208.00
2019-05-05T01:53:07.472Z,6084.00
2019-05-05T01:54:07.448Z,6012.00
2019-05-05T01:55:07.454Z,6072.00
2019-05-05T01:56:07.450Z,6056.00
2019-05-05T01:57:07.425Z,5996.00
2019-05-05T01:58:07.424Z,6044.00
2019-05-05T01:59:07.420Z,5904.00
2019-05-05T02:00:07.423Z,5760.00
2019-05-05T02:01:07.401Z,5764.00
2019-05-05T02:02:07.382Z,5744.00
2019-05-05T02:03:07.375Z,5532.00
2019-05-05T02:04:07.385Z,5364.00
2019-05-05T02:05:07.359Z,5436.00
2019-05-05T02:06:07.363Z,5504.00
2019-05-05T02:07:07.339Z,5564.00
2019-05-05T02:08:07.333Z,5528.00
2019-05-05T02:09:07.332Z,5452.00
2019-05-05T02:10:07.327Z,5376.00
2019-05-05T02:11:07.326Z,5312.00
2019-05-05T02:12:07.307Z,5276.00
2019-05-05T02:13:07.310Z,5248.00
2019-05-05T02:14:07.281Z,5188.00
2019-05-05T02:15:07.286Z,5136.00
2019-05-05T02:16:07.276Z,5116.00
2019-05-05T02:17:07.270Z,5028.00
2019-05-05T02:18:07.266Z,5036.00
2019-05-05T02:19:07.261Z,4968.00
2019-05-05T02:20:07.235Z,4940.00
2019-05-05T02:21:07.228Z,4884.00
2019-05-05T02:22:07.227Z,4808.00
2019-05-05T02:23:07.205Z,4780.00
2019-05-05T02:24:07.210Z,4744.00
2019-05-05T02:25:07.188Z,4688.00
2019-05-05T02:26:07.180Z,4640.00
2019-05-05T02:27:07.169Z,4584.00
2019-05-05T02:28:07.170Z,4544.00
2019-05-05T02:29:07.166Z,4528.00
2019-05-05T02:30:07.153Z,4468.00
2019-05-05T02:31:07.144Z,4428.00
2019-05-05T02:32:07.153Z,4384.00
2019-05-05T02:33:07.130Z,4336.00
2019-05-05T02:34:07.123Z,4276.00
2019-05-05T02:35:07.124Z,4256.00
2019-05-05T02:36:07.106Z,4224.00
2019-05-05T02:37:07.089Z,4184.00
2019-05-05T02:38:07.126Z,4116.00
2019-05-05T02:39:07.068Z,4080.00
2019-05-05T02:40:07.609Z,4040.00
2019-05-05T02:41:07.070Z,4004.00
2019-05-05T02:42:07.062Z,3988.00
2019-05-05T02:43:07.047Z,3908.00
2019-05-05T02:44:07.028Z,3860.00
2019-05-05T02:45:07.035Z,3812.00
2019-05-05T02:46:07.010Z,3800.00
2019-05-05T02:47:07.016Z,3744.00
2019-05-05T02:48:07.012Z,3732.00
2019-05-05T02:49:07.009Z,3688.00
2019-05-05T02:50:07.011Z,3632.00
2019-05-05T02:51:07.442Z,3616.00
2019-05-05T02:52:06.969Z,3592.00
2019-05-05T02:53:06.965Z,3536.00
2019-05-05T02:54:06.961Z,3512.00
2019-05-05T02:55:06.954Z,3480.00
2019-05-05T02:56:06.944Z,3444.00
2019-05-05T02:57:06.925Z,3392.00
2019-05-05T02:58:06.913Z,3368.00
2019-05-05T02:59:06.915Z,3332.00
2019-05-05T03:00:06.889Z,3296.00
2019-05-05T03:01:06.885Z,3256.00
2019-05-05T03:02:06.891Z,3228.00
2019-05-05T03:03:06.873Z,3188.00
2019-05-05T03:04:06.850Z,3172.00
2019-05-05T03:05:06.863Z,3132.00
2019-05-05T03:06:06.842Z,3108.00
2019-05-05T03:07:06.834Z,3084.00
2019-05-05T03:08:06.822Z,3036.00
2019-05-05T03:09:06.818Z,3020.00
2019-05-05T03:10:06.803Z,2996.00
2019-05-05T03:11:06.809Z,2968.00
2019-05-05T03:12:06.783Z,2928.00
2019-05-05T03:13:06.784Z,2892.00
2019-05-05T03:14:06.774Z,2860.00
2019-05-05T03:15:06.754Z,2840.00
2019-05-05T03:16:06.762Z,2816.00
2019-05-05T03:17:06.738Z,2796.00
2019-05-05T03:18:06.748Z,2756.00
2019-05-05T03:19:06.737Z,2752.00
2019-05-05T03:20:06.719Z,2692.00
2019-05-05T03:21:07.423Z,2684.00
2019-05-05T03:22:06.704Z,2648.00
2019-05-05T03:23:06.693Z,2616.00
2019-05-05T03:24:06.696Z,2592.00
2019-05-05T03:25:06.664Z,2552.00
2019-05-05T03:26:06.668Z,2528.00
2019-05-05T03:27:06.656Z,2496.00
2019-05-05T03:28:06.649Z,2488.00
2019-05-05T03:29:06.631Z,2476.00
2019-05-05T03:30:06.641Z,2452.00
2019-05-05T03:31:06.639Z,2428.00
2019-05-05T03:32:11.261Z,2404.00
2019-05-05T03:33:06.595Z,2400.00
2019-05-05T03:34:06.809Z,2376.00
2019-05-05T03:35:06.581Z,2340.00
2019-05-05T03:36:06.574Z,2332.00
2019-05-05T03:37:06.562Z,2320.00
2019-05-05T03:38:06.552Z,2320.00
2019-05-05T03:39:06.550Z,2296.00
2019-05-05T03:40:06.536Z,2264.00
2019-05-05T03:41:06.539Z,2224.00
2019-05-05T03:42:06.509Z,2184.00
2019-05-05T03:43:06.510Z,2144.00
2019-05-05T03:44:06.508Z,2116.00
2019-05-05T03:45:06.484Z,2084.00
2019-05-05T03:46:06.485Z,2028.00
2019-05-05T03:47:06.483Z,1992.00
2019-05-05T03:48:06.470Z,1960.00
2019-05-05T03:49:06.460Z,1888.00
2019-05-05T03:50:06.457Z,1908.00
2019-05-05T03:51:18.255Z,1888.00
2019-05-05T03:52:06.441Z,1880.00
2019-05-05T03:53:06.422Z,1848.00
2019-05-05T03:54:06.411Z,1844.00
2019-05-05T03:55:06.410Z,1824.00
2019-05-05T03:56:06.404Z,1824.00
2019-05-05T03:57:06.382Z,1836.00
2019-05-05T03:58:06.382Z,1812.00
2019-05-05T03:59:06.358Z,1812.00
2019-05-05T04:00:06.370Z,1824.00
2019-05-05T04:01:06.346Z,1828.00
2019-05-05T04:02:06.342Z,1808.00
2019-05-05T04:03:06.343Z,1808.00
2019-05-05T04:04:06.328Z,1800.00
2019-05-05T04:05:06.323Z,1784.00
2019-05-05T04:06:06.313Z,1756.00
2019-05-05T04:07:06.293Z,1752.00
2019-05-05T04:08:06.304Z,1728.00
2019-05-05T04:09:06.277Z,1708.00
2019-05-05T04:10:06.253Z,1716.00
2019-05-05T04:11:06.264Z,1724.00
2019-05-05T04:12:06.236Z,1728.00
2019-05-05T04:13:06.239Z,1708.00
2019-05-05T04:14:06.244Z,1704.00
2019-05-05T04:15:06.209Z,1652.00
2019-05-05T04:16:06.222Z,1668.00
2019-05-05T04:17:06.218Z,1632.00
2019-05-05T04:18:06.181Z,1628.00
2019-05-05T04:19:06.173Z,1656.00
2019-05-05T04:20:06.170Z,1668.00
2019-05-05T04:21:06.152Z,1676.00
2019-05-05T04:22:06.153Z,1692.00
2019-05-05T04:23:06.148Z,1676.00
2019-05-05T04:24:06.132Z,1712.00
2019-05-05T04:25:06.138Z,1748.00
2019-05-05T04:26:06.118Z,1816.00
2019-05-05T04:27:06.103Z,1852.00
2019-05-05T04:28:06.086Z,1860.00
2019-05-05T04:29:06.109Z,1868.00
2019-05-05T04:30:06.084Z,1872.00
2019-05-05T04:31:06.072Z,1888.00
2019-05-05T04:32:06.057Z,1884.00
2019-05-05T04:33:06.053Z,1892.00
2019-05-05T04:34:06.056Z,1860.00
2019-05-05T04:35:06.034Z,1896.00
2019-05-05T04:36:06.023Z,1892.00
2019-05-05T04:37:06.012Z,1880.00
2019-05-05T04:38:06.012Z,1856.00
2019-05-05T04:39:05.995Z,1844.00
2019-05-05T04:40:05.993Z,1780.00
2019-05-05T04:41:05.991Z,1740.00
2019-05-05T04:42:05.967Z,1728.00
2019-05-05T04:43:05.963Z,1692.00
2019-05-05T04:44:05.948Z,1720.00
2019-05-05T04:45:05.938Z,1732.00
2019-05-05T04:46:05.930Z,1688.00
2019-05-05T04:47:05.928Z,1676.00
2019-05-05T04:48:05.913Z,1684.00
2019-05-05T04:49:05.906Z,1684.00
2019-05-05T04:50:05.904Z,1660.00
2019-05-05T04:51:05.882Z,1620.00
2019-05-05T04:52:05.874Z,1596.00
2019-05-05T04:53:05.864Z,1612.00
2019-05-05T04:54:05.855Z,1608.00
2019-05-05T04:55:05.840Z,1556.00
2019-05-05T04:56:05.823Z,1600.00
2019-05-05T04:57:05.828Z,1584.00
2019-05-05T04:58:05.813Z,1604.00
2019-05-05T04:59:05.805Z,1524.00
2019-05-05T05:00:05.797Z,1592.00
2019-05-05T05:01:05.779Z,1588.00
2019-05-05T05:02:05.769Z,1572.00
2019-05-05T05:03:05.765Z,1544.00
2019-05-05T05:04:05.765Z,1516.00
2019-05-05T05:05:05.739Z,1520.00
2019-05-05T05:06:05.730Z,1524.00
2019-05-05T05:07:05.741Z,1508.00
2019-05-05T05:08:05.722Z,1512.00
2019-05-05T05:09:05.710Z,1544.00
2019-05-05T05:10:05.701Z,1532.00
2019-05-05T05:11:05.694Z,1504.00
2019-05-05T05:12:05.696Z,1448.00
2019-05-05T05:13:05.684Z,1452.00
2019-05-05T05:14:05.665Z,1456.00
2019-05-05T05:15:05.655Z,1432.00
2019-05-05T05:16:05.644Z,1468.00
2019-05-05T05:17:05.646Z,1472.00
2019-05-05T05:18:05.646Z,1440.00
2019-05-05T05:19:05.606Z,1448.00
2019-05-05T05:20:05.606Z,1456.00
2019-05-05T05:21:05.591Z,1448.00
2019-05-05T05:22:05.608Z,1452.00
2019-05-05T05:23:05.574Z,1412.00
2019-05-05T05:24:05.557Z,1420.00
2019-05-05T05:25:05.561Z,1412.00
2019-05-05T05:26:05.557Z,1356.00
2019-05-05T05:27:05.550Z,1312.00
2019-05-05T05:28:05.536Z,1316.00
2019-05-05T05:29:05.506Z,1336.00
2019-05-05T05:30:05.498Z,1348.00
2019-05-05T05:31:05.489Z,1396.00
2019-05-05T05:32:05.478Z,1428.00
2019-05-05T05:33:05.483Z,1452.00
2019-05-05T05:34:05.460Z,1452.00
2019-05-05T05:35:05.461Z,1468.00
2019-05-05T05:36:05.458Z,1524.00
2019-05-05T05:37:05.451Z,1544.00
2019-05-05T05:38:05.425Z,1600.00
2019-05-05T05:39:05.412Z,1604.00
2019-05-05T05:40:05.412Z,1664.00
2019-05-05T05:41:05.414Z,1672.00
2019-05-05T05:42:05.406Z,1644.00
2019-05-05T05:43:05.384Z,1712.00
2019-05-05T05:44:05.365Z,1768.00
2019-05-05T05:45:05.365Z,1816.00
2019-05-05T05:46:05.366Z,1836.00
2019-05-05T05:47:05.344Z,1816.00
2019-05-05T05:48:05.331Z,1748.00
2019-05-05T05:49:05.323Z,1748.00
2019-05-05T05:50:05.311Z,1764.00
2019-05-05T05:51:05.303Z,1784.00
2019-05-05T05:52:13.572Z,1784.00
2019-05-05T05:53:05.289Z,1728.00
2019-05-05T05:54:05.273Z,1700.00
2019-05-05T05:55:05.266Z,1628.00
2019-05-05T05:56:05.265Z,1584.00
2019-05-05T05:57:05.248Z,1600.00
2019-05-05T05:58:05.242Z,1564.00
2019-05-05T05:59:05.229Z,1548.00
2019-05-05T06:00:05.208Z,1464.00
2019-05-05T06:01:05.217Z,1552.00
2019-05-05T06:02:09.788Z,1532.00
2019-05-05T06:03:05.179Z,1492.00
2019-05-05T06:04:05.178Z,1524.00
2019-05-05T06:05:05.179Z,1572.00
2019-05-05T06:06:05.165Z,1524.00
2019-05-05T06:07:05.153Z,1440.00
2019-05-05T06:08:05.143Z,1444.00
2019-05-05T06:09:05.130Z,1428.00
2019-05-05T06:10:05.110Z,1436.00
2019-05-05T06:11:05.098Z,1508.00
2019-05-05T06:12:05.101Z,1528.00
2019-05-05T06:13:05.083Z,1576.00
2019-05-05T06:14:05.089Z,1636.00
2019-05-05T06:15:05.067Z,1680.00
2019-05-05T06:16:05.062Z,1812.00
2019-05-05T06:17:05.060Z,1780.00
2019-05-05T06:18:05.054Z,1708.00
2019-05-05T06:19:05.052Z,1552.00
2019-05-05T06:20:05.032Z,1524.00
2019-05-05T06:21:05.013Z,1480.00
2019-05-05T06:22:05.010Z,1472.00
2019-05-05T06:23:05.004Z,1388.00
2019-05-05T06:24:04.987Z,1360.00
2019-05-05T06:25:06.601Z,1356.00
2019-05-05T06:26:06.707Z,1332.00
2019-05-05T06:27:04.952Z,1316.00
2019-05-05T06:28:04.946Z,1304.00
2019-05-05T06:29:04.935Z,1332.00
2019-05-05T06:30:04.942Z,1356.00
2019-05-05T06:31:05.101Z,1348.00
2019-05-05T06:32:04.918Z,1320.00
2019-05-05T06:33:05.006Z,1304.00
2019-05-05T06:34:04.887Z,1252.00
2019-05-05T06:35:04.898Z,1260.00
2019-05-05T06:36:04.883Z,1224.00
2019-05-05T06:37:04.867Z,1204.00
2019-05-05T06:38:04.892Z,1216.00
2019-05-05T06:39:04.827Z,1224.00
2019-05-05T06:40:04.824Z,1212.00
2019-05-05T06:41:04.830Z,1216.00
2019-05-05T06:42:04.808Z,1236.00
2019-05-05T06:43:04.807Z,1216.00
2019-05-05T06:44:04.796Z,1260.00
2019-05-05T06:45:04.768Z,1256.00
2019-05-05T06:46:04.778Z,1184.00
2019-05-05T06:47:04.991Z,1192.00
2019-05-05T06:48:04.756Z,1200.00
2019-05-05T06:49:04.741Z,1244.00
2019-05-05T06:50:04.718Z,1308.00
2019-05-05T06:51:04.729Z,1352.00
2019-05-05T06:52:04.711Z,1308.00
2019-05-05T06:53:04.732Z,1220.00
2019-05-05T06:54:04.770Z,1184.00
2019-05-05T06:55:04.687Z,1176.00
2019-05-05T06:56:04.660Z,1160.00
2019-05-05T06:57:04.735Z,1132.00
2019-05-05T06:58:04.720Z,1128.00
2019-05-05T06:59:04.650Z,1112.00
2019-05-05T07:00:04.639Z,1116.00
2019-05-05T07:01:04.626Z,1072.00
2019-05-05T07:02:04.608Z,1224.00
2019-05-05T07:03:07.691Z,1228.00
2019-05-05T07:04:04.576Z,1248.00
2019-05-05T07:05:04.567Z,1196.00
2019-05-05T07:06:04.629Z,1248.00
2019-05-05T07:07:05.151Z,1268.00
2019-05-05T07:08:04.614Z,1208.00
2019-05-05T07:09:05.498Z,1196.00
2019-05-05T07:10:04.523Z,1288.00
2019-05-05T07:11:04.555Z,1324.00
2019-05-05T07:12:04.750Z,1300.00
2019-05-05T07:13:05.035Z,1244.00
2019-05-05T07:14:04.478Z,1196.00
2019-05-05T07:15:04.496Z,1212.00
2019-05-05T07:16:04.981Z,1192.00
2019-05-05T07:17:05.080Z,1156.00
2019-05-05T07:18:04.462Z,1168.00
2019-05-05T07:19:04.519Z,1096.00
2019-05-05T07:20:04.523Z,1128.00
2019-05-05T07:21:04.425Z,1100.00
2019-05-05T07:22:04.415Z,1072.00
2019-05-05T07:23:05.324Z,1068.00
2019-05-05T07:24:04.388Z,1028.00
2019-05-05T07:25:04.806Z,1040.00
2019-05-05T07:26:04.433Z,1144.00
2019-05-05T07:27:04.930Z,1180.00
2019-05-05T07:28:04.424Z,1184.00
2019-05-05T07:29:04.631Z,1240.00
2019-05-05T07:30:04.825Z,1224.00
2019-05-05T07:31:04.631Z,1188.00
2019-05-05T07:32:04.347Z,1156.00
2019-05-05T07:33:04.652Z,1160.00
2019-05-05T07:34:04.754Z,1040.00
2019-05-05T07:35:04.326Z,1136.00
2019-05-05T07:36:06.135Z,1092.00
2019-05-05T07:37:04.252Z,1104.00
2019-05-05T07:38:04.575Z,1088.00
2019-05-05T07:39:04.243Z,1072.00
2019-05-05T07:40:04.323Z,1076.00
2019-05-05T07:41:04.215Z,1092.00
2019-05-05T07:42:04.587Z,1072.00
2019-05-05T07:43:04.598Z,1064.00
2019-05-05T07:44:04.805Z,1032.00
2019-05-05T07:45:08.406Z,1076.00
2019-05-05T07:46:04.552Z,1072.00
2019-05-05T07:47:04.163Z,1044.00
2019-05-05T07:48:04.796Z,1012.00
2019-05-05T07:49:04.146Z,968.00
2019-05-05T07:50:04.227Z,980.00
2019-05-05T07:51:05.315Z,1040.00
2019-05-05T07:52:04.189Z,1084.00
2019-05-05T07:53:12.228Z,1084.00
2019-05-05T07:54:04.095Z,1048.00
2019-05-05T07:55:04.080Z,1084.00
2019-05-05T07:56:07.417Z,1144.00
2019-05-05T07:57:04.285Z,1112.00
2019-05-05T07:58:04.409Z,1160.00
2019-05-05T07:59:04.107Z,1116.00
2019-05-05T08:00:05.378Z,1088.00
2019-05-05T08:01:04.607Z,1012.00
2019-05-05T08:02:04.112Z,1156.00
2019-05-05T08:03:04.003Z,1288.00
2019-05-05T08:04:04.627Z,1332.00
2019-05-05T08:05:04.635Z,1364.00
2019-05-05T08:06:04.052Z,1320.00
2019-05-05T08:07:04.145Z,1300.00
2019-05-05T08:08:04.587Z,1276.00
2019-05-05T08:09:04.164Z,1244.00
2019-05-05T08:10:04.524Z,1348.00
2019-05-05T08:11:04.788Z,1368.00
2019-05-05T08:12:04.373Z,1336.00
2019-05-05T08:13:04.663Z,1352.00
2019-05-05T08:14:04.177Z,1388.00
2019-05-05T08:15:04.447Z,1400.00
2019-05-05T08:16:03.933Z,1368.00
2019-05-05T08:17:04.251Z,1252.00
2019-05-05T08:18:04.557Z,1200.00
2019-05-05T08:19:03.945Z,1324.00
2019-05-05T08:20:04.080Z,1444.00
2019-05-05T08:21:04.285Z,1536.00
2019-05-05T08:22:03.914Z,1532.00
2019-05-05T08:23:04.654Z,1624.00
2019-05-05T08:24:04.642Z,1708.00
2019-05-05T08:25:04.214Z,1672.00
2019-05-05T08:26:04.584Z,1452.00
2019-05-05T08:27:04.500Z,1344.00
2019-05-05T08:28:04.327Z,1324.00
2019-05-05T08:29:04.624Z,1440.00
2019-05-05T08:30:05.246Z,1456.00
2019-05-05T08:31:03.938Z,1428.00
2019-05-05T08:32:04.365Z,1448.00
2019-05-05T08:33:04.669Z,1420.00
2019-05-05T08:34:03.949Z,1380.00
2019-05-05T08:35:04.313Z,1360.00
2019-05-05T08:36:04.549Z,1404.00
2019-05-05T08:37:04.391Z,1504.00
2019-05-05T08:38:04.618Z,1616.00
2019-05-05T08:39:03.809Z,1656.00
2019-05-05T08:40:04.300Z,1560.00
2019-05-05T08:41:04.564Z,1380.00
2019-05-05T08:42:04.261Z,1284.00
2019-05-05T08:43:04.576Z,1348.00
2019-05-05T08:44:03.745Z,1376.00
2019-05-05T08:45:04.566Z,1372.00
2019-05-05T08:46:04.904Z,1276.00
2019-05-05T08:47:04.421Z,1384.00
2019-05-05T08:48:04.924Z,1412.00
2019-05-05T08:49:04.400Z,1380.00
2019-05-05T08:50:04.173Z,1364.00
2019-05-05T08:51:04.840Z,1400.00
2019-05-05T08:52:04.022Z,1404.00
2019-05-05T08:53:04.464Z,1472.00
2019-05-05T08:54:03.949Z,1580.00
2019-05-05T08:55:04.730Z,1708.00
2019-05-05T08:56:04.111Z,1664.00
2019-05-05T08:57:04.233Z,1500.00
2019-05-05T08:58:04.571Z,1416.00
2019-05-05T08:59:03.708Z,1476.00
2019-05-05T09:00:04.900Z,1552.00
2019-05-05T09:01:04.407Z,1604.00
2019-05-05T09:02:04.544Z,1616.00
2019-05-05T09:03:03.906Z,1676.00
2019-05-05T09:04:04.127Z,1680.00
2019-05-05T09:05:04.255Z,1672.00
2019-05-05T09:06:04.685Z,1664.00
2019-05-05T09:07:05.040Z,1628.00
2019-05-05T09:08:04.615Z,1512.00
2019-05-05T09:09:03.853Z,1476.00
2019-05-05T09:10:03.870Z,1540.00
2019-05-05T09:11:04.792Z,1572.00
2019-05-05T09:12:04.573Z,1616.00
2019-05-05T09:13:03.894Z,1616.00
2019-05-05T09:14:04.118Z,1588.00
2019-05-05T09:15:04.446Z,1620.00
2019-05-05T09:16:03.727Z,1708.00
2019-05-05T09:17:04.443Z,1732.00
2019-05-05T09:18:05.002Z,1652.00
2019-05-05T09:19:04.124Z,1588.00
2019-05-05T09:20:04.544Z,1492.00
2019-05-05T09:21:04.402Z,1408.00
2019-05-05T09:22:06.802Z,1340.00
2019-05-05T09:23:04.185Z,1344.00
2019-05-05T09:24:05.384Z,1408.00
2019-05-05T09:25:04.277Z,1388.00
2019-05-05T09:26:04.433Z,1308.00
2019-05-05T09:27:03.607Z,1256.00
2019-05-05T09:28:05.964Z,1204.00
2019-05-05T09:29:04.377Z,1124.00
2019-05-05T09:30:03.892Z,1140.00
2019-05-05T09:31:04.179Z,1132.00
2019-05-05T09:32:04.018Z,1072.00
2019-05-05T09:33:03.596Z,1056.00
2019-05-05T09:34:04.158Z,1052.00
2019-05-05T09:35:04.758Z,1020.00
2019-05-05T09:36:04.694Z,996.00
2019-05-05T09:37:03.695Z,1016.00
2019-05-05T09:38:03.993Z,1040.00
2019-05-05T09:39:04.360Z,1044.00
2019-05-05T09:40:04.526Z,1076.00
2019-05-05T09:41:03.802Z,1124.00
2019-05-05T09:42:04.082Z,1120.00
2019-05-05T09:43:03.886Z,1116.00
2019-05-05T09:44:04.275Z,1140.00
2019-05-05T09:45:04.749Z,1124.00
2019-05-05T09:46:03.880Z,1096.00
2019-05-05T09:47:04.754Z,1060.00
2019-05-05T09:48:04.313Z,1016.00
2019-05-05T09:49:04.673Z,972.00
2019-05-05T09:50:03.935Z,960.00
2019-05-05T09:51:04.377Z,944.00
2019-05-05T09:52:04.831Z,1000.00
2019-05-05T09:53:04.193Z,1000.00
2019-05-05T09:54:11.848Z,944.00
2019-05-05T09:55:03.829Z,892.00
2019-05-05T09:56:04.079Z,868.00
2019-05-05T09:57:04.490Z,816.00
2019-05-05T09:58:04.488Z,768.00
2019-05-05T09:59:03.780Z,720.00
2019-05-05T10:00:04.594Z,684.00
2019-05-05T10:01:03.958Z,660.00
2019-05-05T10:02:04.410Z,624.00
2019-05-05T10:03:03.796Z,616.00
2019-05-05T10:04:04.508Z,612.00
2019-05-05T10:05:03.988Z,648.00
2019-05-05T10:06:04.708Z,652.00
2019-05-05T10:07:04.429Z,728.00
2019-05-05T10:08:03.552Z,760.00
2019-05-05T10:09:02.741Z,824.00
2019-05-05T10:10:04.539Z,816.00
2019-05-05T10:11:04.137Z,800.00
2019-05-05T10:12:04.640Z,800.00
2019-05-05T10:13:04.147Z,780.00
2019-05-05T10:14:03.971Z,780.00
2019-05-05T10:15:07.173Z,788.00
2019-05-05T10:16:03.934Z,792.00
2019-05-05T10:17:04.680Z,808.00
2019-05-05T10:18:03.530Z,824.00
2019-05-05T10:19:04.445Z,876.00
2019-05-05T10:20:03.959Z,872.00
2019-05-05T10:21:04.486Z,832.00
2019-05-05T10:22:04.086Z,820.00
2019-05-05T10:23:02.586Z,832.00
2019-05-05T10:24:04.471Z,856.00
2019-05-05T10:25:04.156Z,880.00
2019-05-05T10:26:04.379Z,908.00
2019-05-05T10:27:04.716Z,916.00
2019-05-05T10:28:04.206Z,932.00
2019-05-05T10:29:04.082Z,904.00
2019-05-05T10:30:04.149Z,876.00
2019-05-05T10:31:04.531Z,820.00
2019-05-05T10:32:04.421Z,756.00
2019-05-05T10:33:03.765Z,696.00
2019-05-05T10:34:04.393Z,664.00
2019-05-05T10:35:04.442Z,644.00
2019-05-05T10:36:02.467Z,644.00
2019-05-05T10:37:04.173Z,632.00
2019-05-05T10:38:02.446Z,628.00
2019-05-05T10:39:04.349Z,624.00
2019-05-05T10:40:03.624Z,624.00
2019-05-05T10:41:04.213Z,616.00
2019-05-05T10:42:04.052Z,620.00
2019-05-05T10:43:04.224Z,616.00
2019-05-05T10:44:03.656Z,596.00
2019-05-05T10:45:04.285Z,588.00
2019-05-05T10:46:03.884Z,592.00
2019-05-05T10:47:04.364Z,592.00
2019-05-05T10:48:04.098Z,592.00
2019-05-05T10:49:02.324Z,592.00
2019-05-05T10:50:02.315Z,592.00
2019-05-05T10:51:04.129Z,588.00
2019-05-05T10:52:03.660Z,584.00
2019-05-05T10:53:04.279Z,580.00
2019-05-05T10:54:04.047Z,580.00
2019-05-05T10:55:03.931Z,580.00
2019-05-05T10:56:04.287Z,580.00
2019-05-05T10:57:03.967Z,576.00
2019-05-05T10:58:02.220Z,572.00
2019-05-05T10:59:03.954Z,568.00
2019-05-05T11:00:11.689Z,560.00
2019-05-05T11:01:04.112Z,556.00
2019-05-05T11:02:04.614Z,548.00
2019-05-05T11:03:03.930Z,544.00
2019-05-05T11:04:02.181Z,536.00
2019-05-05T11:05:03.964Z,532.00
2019-05-05T11:06:04.343Z,524.00
2019-05-05T11:07:03.976Z,520.00
2019-05-05T11:08:04.246Z,512.00
2019-05-05T11:09:04.321Z,508.00
2019-05-05T11:10:03.597Z,500.00
2019-05-05T11:11:04.063Z,496.00
2019-05-05T11:12:02.077Z,488.00
2019-05-05T11:13:02.096Z,484.00
2019-05-05T11:14:03.744Z,468.00
2019-05-05T11:15:03.952Z,460.00
2019-05-05T11:16:03.877Z,448.00
2019-05-05T11:17:03.920Z,436.00
2019-05-05T11:18:03.926Z,424.00
2019-05-05T11:19:04.201Z,416.00
2019-05-05T11:20:03.700Z,404.00
2019-05-05T11:21:03.911Z,400.00
2019-05-05T11:22:01.984Z,388.00
2019-05-05T11:23:01.981Z,372.00
2019-05-05T11:24:01.970Z,364.00
2019-05-05T11:25:01.974Z,352.00
2019-05-05T11:26:01.947Z,344.00
2019-05-05T11:27:01.936Z,340.00
2019-05-05T11:28:03.415Z,332.00
2019-05-05T11:29:04.124Z,320.00
2019-05-05T11:30:03.903Z,308.00
2019-05-05T11:31:04.231Z,300.00
2019-05-05T11:32:03.573Z,300.00
2019-05-05T11:33:03.890Z,292.00
2019-05-05T11:34:01.874Z,284.00
2019-05-05T11:35:01.864Z,280.00
2019-05-05T11:36:01.848Z,268.00
2019-05-05T11:37:03.623Z,260.00
2019-05-05T11:38:03.198Z,252.00
2019-05-05T11:39:03.971Z,240.00
2019-05-05T11:40:01.813Z,228.00
2019-05-05T11:41:01.804Z,212.00
2019-05-05T11:42:04.231Z,200.00
2019-05-05T11:43:03.772Z,196.00
2019-05-05T11:44:03.929Z,188.00
2019-05-05T11:45:04.075Z,184.00
2019-05-05T11:46:01.743Z,180.00
2019-05-05T11:47:03.609Z,172.00
2019-05-05T11:48:01.718Z,168.00
2019-05-05T11:49:01.703Z,160.00
2019-05-05T11:50:04.243Z,152.00
2019-05-05T11:51:01.692Z,144.00
2019-05-05T11:52:01.686Z,136.00
2019-05-05T11:53:03.811Z,128.00
2019-05-05T11:54:01.643Z,116.00
2019-05-05T11:55:09.750Z,108.00
2019-05-05T11:56:03.992Z,104.00
2019-05-05T11:57:01.624Z,96.00
2019-05-05T11:58:03.447Z,92.00
2019-05-05T11:59:03.730Z,88.00
2019-05-05T12:00:03.717Z,80.00
2019-05-05T12:01:03.568Z,76.00
2019-05-05T12:02:03.663Z,72.00
2019-05-05T12:03:03.695Z,68.00
2019-05-05T12:04:01.539Z,64.00
2019-05-05T12:05:01.542Z,56.00
2019-05-05T12:06:03.772Z,52.00
2019-05-05T12:07:01.523Z,48.00
2019-05-05T12:08:01.520Z,40.00
2019-05-05T12:09:01.489Z,40.00
2019-05-05T12:10:01.488Z,68.00